Time;durP1;ratioP1;P1;durP2;ratioP2;P2;SDS_P1;SDS_P2;PMS_P1;PMS_P2;Temp;Humidity;BMP_temperature;BMP_pressure;BME280_temperature;BME280_humidity;BME280_pressure;Samples;Min_cycle;Max_cycle;Signal;HPM_P1;HPM_P2
2023/02/11 00:01:30;;;;;;;9.82;6.40;;;9.00;99.90;;;;;;5039865;28;20123;-92
2023/02/11 00:03:56;;;;;;;7.55;5.68;;;9.00;99.90;;;;;;5054667;28;20043;-93
2023/02/11 00:06:23;;;;;;;6.55;5.65;;;9.00;99.90;;;;;;5055507;28;20103;-93
2023/02/11 00:08:49;;;;;;;9.05;4.78;;;9.00;99.90;;;;;;5036643;28;20051;-94
2023/02/11 00:11:16;;;;;;;6.50;4.80;;;9.00;99.90;;;;;;5054447;28;20053;-93
2023/02/11 00:13:43;;;;;;;7.22;4.65;;;9.00;99.90;;;;;;5036283;28;20025;-93
2023/02/11 00:16:11;;;;;;;7.82;4.57;;;9.00;99.90;;;;;;5036565;28;20021;-95
2023/02/11 00:18:37;;;;;;;6.72;4.70;;;9.00;99.90;;;;;;5054601;28;20086;-93
2023/02/11 00:21:12;;;;;;;8.85;4.50;;;9.00;99.90;;;;;;5037599;28;20086;-93
2023/02/11 00:23:38;;;;;;;6.50;4.38;;;8.90;99.90;;;;;;5058555;28;20099;-92
2023/02/11 00:26:14;;;;;;;8.00;4.88;;;8.90;99.90;;;;;;5072563;28;20029;-92
2023/02/11 00:28:42;;;;;;;5.88;4.40;;;9.00;99.90;;;;;;5055361;28;20095;-92
2023/02/11 00:31:08;;;;;;;6.75;4.53;;;8.90;99.90;;;;;;5036568;28;20021;-92
2023/02/11 00:33:33;;;;;;;6.93;4.30;;;8.90;99.90;;;;;;5036053;28;20112;-93
2023/02/11 00:36:04;;;;;;;9.07;4.80;;;8.90;99.90;;;;;;5036671;28;20116;-92
2023/02/11 00:38:30;;;;;;;11.48;5.82;;;8.90;99.90;;;;;;5036852;28;20060;-93
2023/02/11 00:40:55;;;;;;;16.08;7.60;;;8.90;99.90;;;;;;5036240;28;20033;-93
2023/02/11 00:43:21;;;;;;;10.35;5.55;;;8.90;99.90;;;;;;5053849;28;20024;-95
2023/02/11 00:45:47;;;;;;;8.50;4.90;;;8.90;99.90;;;;;;5036207;28;20037;-91
2023/02/11 00:48:12;;;;;;;8.23;4.93;;;8.90;99.90;;;;;;5053872;28;20112;-93
2023/02/11 00:50:38;;;;;;;9.25;5.30;;;8.90;99.90;;;;;;5055260;28;20029;-93
2023/02/11 00:53:04;;;;;;;7.32;4.50;;;8.90;99.90;;;;;;5056124;28;20104;-92
2023/02/11 00:55:29;;;;;;;7.97;3.90;;;8.90;99.90;;;;;;5040693;28;20060;-93
2023/02/11 00:57:55;;;;;;;7.72;4.30;;;8.90;99.90;;;;;;5054894;28;20024;-94
2023/02/11 01:00:21;;;;;;;8.57;5.05;;;8.90;99.90;;;;;;5037650;28;20028;-92
2023/02/11 01:02:47;;;;;;;7.00;4.13;;;8.90;99.90;;;;;;5038830;28;20054;-95
2023/02/11 01:05:12;;;;;;;7.68;4.53;;;8.90;99.90;;;;;;5046977;28;20040;-95
2023/02/11 01:07:38;;;;;;;7.13;3.70;;;8.90;99.90;;;;;;5057532;28;20036;-93
2023/02/11 01:10:04;;;;;;;5.88;4.03;;;8.80;99.90;;;;;;5047265;28;20045;-87
2023/02/11 01:12:29;;;;;;;4.97;3.40;;;8.90;99.90;;;;;;5057030;28;20051;-91
2023/02/11 01:14:55;;;;;;;7.40;4.07;;;8.80;99.90;;;;;;5044931;28;20029;-95
2023/02/11 01:17:21;;;;;;;8.02;3.72;;;8.80;99.90;;;;;;5054610;28;20401;-94
2023/02/11 01:19:46;;;;;;;6.00;4.03;;;8.80;99.90;;;;;;5054663;28;20036;-94
2023/02/11 01:22:12;;;;;;;7.72;3.10;;;8.80;99.90;;;;;;5039331;28;20029;-94
2023/02/11 01:24:38;;;;;;;5.05;3.03;;;8.80;99.90;;;;;;5046007;28;20033;-94
2023/02/11 01:27:05;;;;;;;7.57;3.25;;;8.80;99.90;;;;;;5044699;28;20032;-95
2023/02/11 01:29:30;;;;;;;5.15;3.53;;;8.80;99.90;;;;;;5041745;28;20037;-94
2023/02/11 01:31:56;;;;;;;7.97;3.53;;;8.70;99.90;;;;;;5040158;28;20117;-94
2023/02/11 01:34:22;;;;;;;4.80;2.97;;;8.70;99.90;;;;;;5037777;28;20381;-94
2023/02/11 01:36:47;;;;;;;6.30;2.65;;;8.70;99.90;;;;;;5037535;28;20025;-93
2023/02/11 01:39:13;;;;;;;5.03;2.15;;;8.70;99.90;;;;;;5041584;28;20017;-93
2023/02/11 01:41:38;;;;;;;3.47;2.15;;;8.70;99.90;;;;;;5058493;28;20478;-94
2023/02/11 01:44:34;;;;;;;6.30;2.15;;;8.70;99.90;;;;;;5040256;28;20036;-93
2023/02/11 01:47:00;;;;;;;5.88;2.08;;;8.60;99.90;;;;;;5056327;28;20032;-94
2023/02/11 01:49:48;;;;;;;5.50;2.08;;;8.60;99.90;;;;;;5058088;28;20049;-93
2023/02/11 01:52:46;;;;;;;3.58;1.63;;;8.60;99.90;;;;;;5040298;28;20029;-93
2023/02/11 01:58:01;;;;;;;5.15;1.40;;;8.60;99.90;;;;;;5058203;28;20036;-92
2023/02/11 02:00:36;;;;;;;5.80;1.20;;;8.50;99.90;;;;;;5058675;28;20024;-91
2023/02/11 02:03:21;;;;;;;3.30;1.00;;;8.50;99.90;;;;;;5058546;28;20113;-91
2023/02/11 02:06:02;;;;;;;1.98;0.90;;;8.50;99.90;;;;;;5040960;28;20043;-92
2023/02/11 02:08:45;;;;;;;2.55;0.98;;;8.50;99.90;;;;;;5058584;28;20052;-93
2023/02/11 02:11:11;;;;;;;1.25;0.60;;;8.50;99.90;;;;;;5058745;28;20032;-91
2023/02/11 02:13:37;;;;;;;3.33;0.90;;;8.50;99.90;;;;;;5041705;28;20110;-95
2023/02/11 02:16:11;;;;;;;3.13;0.60;;;8.40;99.90;;;;;;5077123;28;20037;-92
2023/02/11 02:18:59;;;;;;;1.48;0.45;;;8.40;99.90;;;;;;5061072;28;20025;-93
2023/02/11 02:21:41;;;;;;;0.98;0.60;;;8.40;99.90;;;;;;5064183;28;20126;-94
2023/02/11 02:24:15;;;;;;;0.40;0.40;;;8.40;99.90;;;;;;5054915;28;20055;-92
2023/02/11 02:27:19;;;;;;;0.73;0.73;;;8.40;99.90;;;;;;5048832;28;20111;-93
2023/02/11 02:30:18;;;;;;;1.33;0.70;;;8.40;99.90;;;;;;5050218;28;20056;-91
2023/02/11 02:33:08;;;;;;;1.92;0.40;;;8.40;99.90;;;;;;5062216;28;20021;-90
2023/02/11 02:35:58;;;;;;;0.90;0.50;;;8.40;99.90;;;;;;5062755;28;20029;-87
2023/02/11 02:38:51;;;;;;;4.20;0.43;;;8.40;99.90;;;;;;5062289;28;20037;-88
2023/02/11 02:41:22;;;;;;;2.50;0.40;;;8.30;99.90;;;;;;5062295;28;20025;-88
2023/02/11 02:43:50;;;;;;;6.90;1.33;;;8.30;99.90;;;;;;5062048;28;20013;-86
2023/02/11 02:46:18;;;;;;;0.52;0.40;;;8.30;99.90;;;;;;5061849;28;20082;-89
2023/02/11 02:48:45;;;;;;;0.38;0.28;;;8.30;99.90;;;;;;5053487;28;20056;-92
2023/02/11 02:51:37;;;;;;;0.95;0.43;;;8.30;99.90;;;;;;5063548;28;20031;-92
2023/02/11 02:54:12;;;;;;;1.40;0.75;;;8.30;99.90;;;;;;5045479;28;20082;-94
2023/02/11 02:56:53;;;;;;;1.33;0.50;;;8.30;99.90;;;;;;5042491;28;20039;-93
2023/02/11 02:59:32;;;;;;;0.55;0.32;;;8.30;99.90;;;;;;5041423;28;20028;-94
2023/02/11 03:02:05;;;;;;;0.68;0.47;;;8.30;99.90;;;;;;5041297;28;20040;-93
2023/02/11 03:04:43;;;;;;;0.82;0.40;;;8.30;99.90;;;;;;5039124;28;20041;-93
2023/02/11 03:07:33;;;;;;;1.90;0.65;;;8.30;99.90;;;;;;5039363;28;20029;-93
2023/02/11 03:10:10;;;;;;;0.75;0.40;;;8.20;99.90;;;;;;5057306;28;20043;-93
2023/02/11 03:12:37;;;;;;;1.52;0.70;;;8.30;99.90;;;;;;5055710;28;20040;-92
2023/02/11 03:15:06;;;;;;;2.80;0.50;;;8.20;99.90;;;;;;5056951;28;20056;-92
2023/02/11 03:17:34;;;;;;;2.13;0.80;;;8.20;99.90;;;;;;5038019;28;20025;-92
2023/02/11 03:20:03;;;;;;;3.00;0.70;;;8.20;99.90;;;;;;5047160;28;20021;-92
2023/02/11 03:22:37;;;;;;;3.67;0.60;;;8.20;99.90;;;;;;5034704;28;20033;-91
2023/02/11 03:25:04;;;;;;;0.70;0.70;;;8.20;99.90;;;;;;5034755;28;20034;-92
2023/02/11 03:27:54;;;;;;;2.63;0.93;;;8.20;99.90;;;;;;5034996;28;20017;-94
2023/02/11 03:30:47;;;;;;;2.15;0.70;;;8.20;99.90;;;;;;5033574;28;20033;-94
2023/02/11 03:33:26;;;;;;;1.10;0.60;;;8.20;99.90;;;;;;5035635;28;20033;-93
2023/02/11 03:36:01;;;;;;;2.95;0.88;;;8.10;99.90;;;;;;5017777;28;20033;-92
2023/02/11 03:38:37;;;;;;;1.92;0.65;;;8.10;99.90;;;;;;5035336;28;20033;-90
2023/02/11 03:41:05;;;;;;;6.15;0.80;;;8.10;99.90;;;;;;5034680;28;20044;-96
2023/02/11 03:43:44;;;;;;;4.20;1.10;;;8.10;99.90;;;;;;5034968;28;20025;-92
2023/02/11 03:46:13;;;;;;;1.27;0.70;;;8.10;99.90;;;;;;5035074;28;20033;-93
2023/02/11 03:48:44;;;;;;;1.77;0.68;;;8.10;99.90;;;;;;5033642;28;20103;-95
2023/02/11 03:51:12;;;;;;;7.40;0.98;;;8.10;99.90;;;;;;5035444;28;20160;-94
2023/02/11 03:53:41;;;;;;;1.92;0.95;;;8.10;99.90;;;;;;5034721;28;20422;-94
2023/02/11 03:56:11;;;;;;;3.60;0.80;;;8.10;99.90;;;;;;5033400;28;20196;-92
2023/02/11 03:58:37;;;;;;;2.47;1.13;;;8.10;99.90;;;;;;5034512;28;20022;-94
2023/02/11 04:01:03;;;;;;;1.92;0.95;;;8.10;99.90;;;;;;5017233;28;20137;-94
2023/02/11 04:03:31;;;;;;;5.10;0.80;;;8.00;99.90;;;;;;5016552;28;20034;-93
2023/02/11 04:05:57;;;;;;;5.45;1.05;;;8.00;99.90;;;;;;5034578;28;20025;-94
2023/02/11 04:08:23;;;;;;;2.65;1.02;;;8.00;99.90;;;;;;5036612;28;20095;-94
2023/02/11 04:10:48;;;;;;;1.63;0.70;;;8.00;99.90;;;;;;5035758;28;20033;-94
2023/02/11 04:13:14;;;;;;;4.72;1.13;;;8.00;99.90;;;;;;5034556;28;20029;-94
2023/02/11 04:15:40;;;;;;;5.47;0.95;;;8.00;99.90;;;;;;5034665;28;20037;-94
2023/02/11 04:18:05;;;;;;;2.72;1.10;;;7.90;99.90;;;;;;5039107;28;20045;-94
2023/02/11 04:20:31;;;;;;;3.65;1.05;;;7.90;99.90;;;;;;5018000;28;20120;-95
2023/02/11 04:22:57;;;;;;;3.47;1.02;;;7.90;99.90;;;;;;5027555;28;20025;-92
2023/02/11 04:25:22;;;;;;;4.35;0.95;;;7.90;99.90;;;;;;5046170;28;20441;-94
2023/02/11 04:27:48;;;;;;;2.75;0.90;;;7.90;99.90;;;;;;5025919;28;20048;-95
2023/02/11 04:30:14;;;;;;;2.78;1.20;;;7.90;99.90;;;;;;5024897;28;20060;-94
2023/02/11 04:32:39;;;;;;;4.95;0.90;;;7.80;99.90;;;;;;5040646;28;20041;-95
2023/02/11 04:35:06;;;;;;;3.03;0.75;;;7.80;99.90;;;;;;5020142;28;20029;-94
2023/02/11 04:37:31;;;;;;;3.55;0.90;;;7.80;99.90;;;;;;5036832;28;20033;-94
2023/02/11 04:39:57;;;;;;;2.90;0.80;;;7.80;99.90;;;;;;5034924;28;20068;-93
2023/02/11 04:42:23;;;;;;;8.10;1.25;;;7.80;99.90;;;;;;5034230;28;20041;-94
2023/02/11 04:44:49;;;;;;;0.82;0.75;;;7.80;99.90;;;;;;5034865;28;20044;-96
2023/02/11 04:47:14;;;;;;;2.72;0.90;;;7.70;99.90;;;;;;5016351;28;20103;-95
2023/02/11 04:49:40;;;;;;;3.08;0.80;;;7.70;99.90;;;;;;5017073;28;20033;-94
2023/02/11 04:52:07;;;;;;;1.00;0.40;;;7.80;99.90;;;;;;5034081;28;20025;-94
2023/02/11 04:54:33;;;;;;;2.60;1.02;;;7.70;99.90;;;;;;5016690;28;20021;-94
2023/02/11 04:56:58;;;;;;;1.55;0.73;;;7.70;99.90;;;;;;5016118;28;20025;-94
2023/02/11 04:59:24;;;;;;;0.98;0.70;;;7.70;99.90;;;;;;5016459;28;20026;-93
2023/02/11 05:01:50;;;;;;;4.93;0.90;;;7.70;99.90;;;;;;5016575;28;20033;-94
2023/02/11 05:04:16;;;;;;;3.58;0.52;;;7.70;99.90;;;;;;5017290;28;20029;-93
2023/02/11 05:06:41;;;;;;;0.70;0.45;;;7.70;99.90;;;;;;5034409;28;20112;-93
2023/02/11 05:09:09;;;;;;;1.08;0.43;;;7.70;99.90;;;;;;5034537;28;20118;-95
2023/02/11 05:11:35;;;;;;;1.15;0.47;;;7.70;99.90;;;;;;5034078;28;20021;-94
2023/02/11 05:14:01;;;;;;;3.72;0.70;;;7.70;99.90;;;;;;5015424;28;20021;-93
2023/02/11 05:16:27;;;;;;;1.63;0.77;;;7.70;99.90;;;;;;5016354;28;20862;-94
2023/02/11 05:18:54;;;;;;;6.95;0.85;;;7.70;99.90;;;;;;5033689;28;20035;-95
2023/02/11 05:21:20;;;;;;;7.53;1.85;;;7.60;99.90;;;;;;5034348;28;20068;-92
2023/02/11 05:23:46;;;;;;;5.32;0.82;;;7.60;99.90;;;;;;5037891;28;20026;-94
2023/02/11 05:26:12;;;;;;;4.53;0.80;;;7.70;99.90;;;;;;5020107;28;20056;-94
2023/02/11 05:28:38;;;;;;;5.47;0.77;;;7.70;99.90;;;;;;5033528;28;20467;-94
2023/02/11 05:31:04;;;;;;;5.63;1.45;;;7.70;99.90;;;;;;5016081;28;20025;-92
2023/02/11 05:33:30;;;;;;;2.65;0.60;;;7.70;99.90;;;;;;5033933;28;20029;-94
2023/02/11 05:36:01;;;;;;;3.60;0.88;;;7.70;99.90;;;;;;5034179;28;20478;-94
2023/02/11 05:38:27;;;;;;;4.25;0.80;;;7.70;99.90;;;;;;5016046;28;20030;-94
2023/02/11 05:40:53;;;;;;;1.77;0.65;;;7.70;99.90;;;;;;5016542;28;20177;-93
2023/02/11 05:43:19;;;;;;;6.53;1.05;;;7.70;99.90;;;;;;5031993;28;20018;-92
2023/02/11 05:45:44;;;;;;;2.72;0.77;;;7.70;99.90;;;;;;5018798;28;20025;-92
2023/02/11 05:48:10;;;;;;;2.63;0.80;;;7.80;99.90;;;;;;5033807;28;20050;-93
2023/02/11 05:50:35;;;;;;;1.60;0.73;;;7.70;99.90;;;;;;5015235;28;20073;-92
2023/02/11 05:53:02;;;;;;;2.08;0.50;;;7.80;99.90;;;;;;5032621;28;20037;-91
2023/02/11 05:55:27;;;;;;;1.48;0.47;;;7.80;99.90;;;;;;5015267;28;20537;-92
2023/02/11 05:57:53;;;;;;;2.70;0.40;;;7.80;99.90;;;;;;5014945;28;20077;-93
2023/02/11 06:00:19;;;;;;;3.47;0.77;;;7.80;99.90;;;;;;5015084;28;20025;-94
2023/02/11 06:02:44;;;;;;;5.07;0.60;;;7.80;99.90;;;;;;5032808;28;20029;-94
2023/02/11 06:05:11;;;;;;;2.75;0.65;;;7.80;99.90;;;;;;5033842;28;20060;-93
2023/02/11 06:07:37;;;;;;;4.97;0.70;;;7.80;99.90;;;;;;5015337;28;20053;-93
2023/02/11 06:10:03;;;;;;;2.80;0.57;;;7.80;99.90;;;;;;5033116;28;20433;-95
2023/02/11 06:12:28;;;;;;;2.17;0.60;;;7.80;99.90;;;;;;5032996;28;20030;-94
2023/02/11 06:14:54;;;;;;;1.60;0.55;;;7.70;99.90;;;;;;5033156;28;20025;-88
2023/02/11 06:17:20;;;;;;;2.63;0.63;;;7.80;99.90;;;;;;5016872;28;20036;-94
2023/02/11 06:19:45;;;;;;;4.60;0.73;;;7.70;99.90;;;;;;5033831;28;20034;-89
2023/02/11 06:22:11;;;;;;;4.15;1.70;;;7.70;99.90;;;;;;5034449;28;20025;-93
2023/02/11 06:24:37;;;;;;;3.40;1.27;;;7.70;99.90;;;;;;5026731;28;20064;-94
2023/02/11 06:27:03;;;;;;;3.58;0.82;;;7.70;99.90;;;;;;5033875;28;20030;-93
2023/02/11 06:29:29;;;;;;;2.65;0.85;;;7.70;99.90;;;;;;5038237;28;20048;-89
2023/02/11 06:31:55;;;;;;;1.98;1.23;;;7.70;99.90;;;;;;5058867;28;20077;-88
2023/02/11 06:34:21;;;;;;;2.53;1.00;;;7.70;99.90;;;;;;5058897;28;20038;-87
2023/02/11 06:36:46;;;;;;;3.40;1.33;;;7.60;99.90;;;;;;5031192;28;20103;-92
2023/02/11 06:39:12;;;;;;;1.77;1.02;;;7.60;99.90;;;;;;5025075;28;20022;-93
2023/02/11 06:41:38;;;;;;;2.17;1.15;;;7.60;99.90;;;;;;5018926;28;20487;-94
2023/02/11 06:44:04;;;;;;;5.90;1.13;;;7.60;99.90;;;;;;5019139;28;20036;-93
2023/02/11 06:46:29;;;;;;;3.67;1.15;;;7.60;99.90;;;;;;5037067;28;20502;-94
2023/02/11 06:48:55;;;;;;;3.90;0.90;;;7.60;99.90;;;;;;5018062;28;20072;-93
2023/02/11 06:51:22;;;;;;;1.83;0.80;;;7.60;99.90;;;;;;5035564;28;20025;-93
2023/02/11 06:53:48;;;;;;;3.67;1.00;;;7.60;99.90;;;;;;5001678;28;20044;-94
2023/02/11 06:56:19;;;;;;;1.75;1.10;;;7.60;99.90;;;;;;5017747;28;20037;-92
2023/02/11 06:58:45;;;;;;;5.05;1.10;;;7.60;99.90;;;;;;5053922;28;20024;-89
2023/02/11 07:01:13;;;;;;;4.30;1.48;;;7.60;99.90;;;;;;5042756;28;20048;-94
2023/02/11 07:03:41;;;;;;;1.00;0.88;;;7.60;99.90;;;;;;5030116;28;20100;-94
2023/02/11 07:06:10;;;;;;;1.10;0.80;;;7.60;99.90;;;;;;5045576;28;20077;-94
2023/02/11 07:08:37;;;;;;;17.77;2.88;;;7.60;99.90;;;;;;5058763;28;20061;-93
2023/02/11 07:11:10;;;;;;;1.77;0.60;;;7.60;99.90;;;;;;5033409;28;20029;-93
2023/02/11 07:13:36;;;;;;;2.35;0.60;;;7.60;99.90;;;;;;5035321;28;20073;-92
2023/02/11 07:16:06;;;;;;;1.75;0.93;;;7.60;99.90;;;;;;5038796;28;20559;-94
2023/02/11 07:18:32;;;;;;;2.65;0.80;;;7.60;99.90;;;;;;5057014;28;20466;-92
2023/02/11 07:20:58;;;;;;;1.80;0.82;;;7.60;99.90;;;;;;5059176;28;20041;-93
2023/02/11 07:23:23;;;;;;;0.95;0.70;;;7.60;99.90;;;;;;5045969;28;20020;-95
2023/02/11 07:25:49;;;;;;;3.22;0.73;;;7.60;99.90;;;;;;5066783;28;20486;-94
2023/02/11 07:28:14;;;;;;;6.85;1.00;;;7.60;99.90;;;;;;5048688;28;20487;-94
2023/02/11 07:30:40;;;;;;;3.65;0.70;;;7.60;99.90;;;;;;5058416;28;20045;-94
2023/02/11 07:33:06;;;;;;;2.30;1.00;;;7.50;99.90;;;;;;5044468;28;20518;-95
2023/02/11 07:35:31;;;;;;;2.20;1.25;;;7.60;99.90;;;;;;5022680;28;20390;-95
2023/02/11 07:37:57;;;;;;;3.42;0.90;;;7.60;99.90;;;;;;5025273;28;20032;-94
2023/02/11 07:40:22;;;;;;;2.35;0.73;;;7.60;99.90;;;;;;5040492;28;20060;-94
2023/02/11 07:42:48;;;;;;;2.72;0.80;;;7.60;99.90;;;;;;5052016;28;20100;-95
2023/02/11 07:45:15;;;;;;;1.77;0.90;;;7.60;99.90;;;;;;5043584;28;20586;-94
2023/02/11 07:47:41;;;;;;;3.60;0.88;;;7.60;99.90;;;;;;5035683;28;20046;-93
2023/02/11 07:50:08;;;;;;;3.33;0.75;;;7.60;99.90;;;;;;5030069;28;20075;-93
2023/02/11 07:52:33;;;;;;;3.67;0.98;;;7.60;99.90;;;;;;5039932;28;20545;-94
2023/02/11 07:54:59;;;;;;;1.08;0.70;;;7.60;99.90;;;;;;5055959;28;20087;-95
2023/02/11 07:57:25;;;;;;;8.90;2.40;;;7.60;99.90;;;;;;5038675;28;20095;-92
2023/02/11 07:59:52;;;;;;;1.85;0.77;;;7.60;99.90;;;;;;5037995;28;20033;-94
2023/02/11 08:02:17;;;;;;;3.97;1.20;;;7.60;99.90;;;;;;5038386;28;20555;-94
2023/02/11 08:04:45;;;;;;;3.28;0.75;;;7.60;99.90;;;;;;5039865;28;20029;-94
2023/02/11 08:07:14;;;;;;;3.33;0.88;;;7.60;99.90;;;;;;5039964;28;20031;-94
2023/02/11 08:09:40;;;;;;;3.20;0.75;;;7.60;99.90;;;;;;5048712;28;20060;-95
2023/02/11 08:12:06;;;;;;;3.03;0.77;;;7.50;99.90;;;;;;5032830;28;20049;-94
2023/02/11 08:14:31;;;;;;;1.38;0.93;;;7.60;99.90;;;;;;5017625;28;20089;-92
2023/02/11 08:16:57;;;;;;;2.97;1.00;;;7.60;99.90;;;;;;5021090;28;20029;-95
2023/02/11 08:19:23;;;;;;;1.40;0.77;;;7.60;99.90;;;;;;5017468;28;20521;-93
2023/02/11 08:21:49;;;;;;;3.00;0.80;;;7.60;99.90;;;;;;5029208;28;20048;-95
2023/02/11 08:24:15;;;;;;;2.83;1.05;;;7.60;99.90;;;;;;5029272;28;20467;-95
2023/02/11 08:26:41;;;;;;;2.15;0.70;;;7.60;99.90;;;;;;5051499;28;20151;-95
2023/02/11 08:29:10;;;;;;;2.90;0.90;;;7.60;99.90;;;;;;5034201;28;20086;-93
2023/02/11 08:31:38;;;;;;;1.33;0.90;;;7.70;99.90;;;;;;5035799;28;20017;-92
2023/02/11 08:34:04;;;;;;;3.20;0.88;;;7.70;99.90;;;;;;5034774;28;20087;-94
2023/02/11 08:36:33;;;;;;;1.77;0.90;;;7.70;99.90;;;;;;5016078;28;20025;-93
2023/02/11 08:39:04;;;;;;;3.03;0.90;;;7.70;99.90;;;;;;5036974;28;20051;-93
2023/02/11 08:41:30;;;;;;;2.45;1.05;;;7.70;99.90;;;;;;5048620;28;20060;-91
2023/02/11 08:43:56;;;;;;;2.95;0.93;;;7.70;99.90;;;;;;5048154;28;20051;-94
2023/02/11 08:46:22;;;;;;;1.80;0.90;;;7.70;99.90;;;;;;5044033;28;20036;-93
2023/02/11 08:48:47;;;;;;;4.30;1.23;;;7.70;99.90;;;;;;5061116;28;20047;-94
2023/02/11 08:51:30;;;;;;;2.15;0.80;;;7.70;99.90;;;;;;5065671;28;20063;-94
2023/02/11 08:53:56;;;;;;;1.60;0.80;;;7.80;99.90;;;;;;5049785;28;20087;-95
2023/02/11 08:56:24;;;;;;;2.13;1.00;;;7.80;99.90;;;;;;5059773;28;20021;-95
2023/02/11 08:58:51;;;;;;;1.65;0.80;;;7.80;99.90;;;;;;5061821;28;20021;-94
2023/02/11 09:01:20;;;;;;;3.50;1.60;;;7.80;99.90;;;;;;5057203;28;20039;-94
2023/02/11 09:03:46;;;;;;;3.55;0.93;;;7.80;99.90;;;;;;5046891;28;20518;-93
2023/02/11 09:06:13;;;;;;;1.80;0.90;;;7.80;99.90;;;;;;5061933;28;20041;-94
2023/02/11 09:08:41;;;;;;;4.53;1.00;;;7.90;99.90;;;;;;5041949;28;20021;-93
2023/02/11 09:11:09;;;;;;;0.82;0.47;;;7.90;99.90;;;;;;5044528;28;20020;-94
2023/02/11 09:13:34;;;;;;;2.58;0.90;;;7.90;99.90;;;;;;5046301;28;20390;-93
2023/02/11 09:16:02;;;;;;;3.47;0.82;;;7.90;99.90;;;;;;5063724;28;20032;-93
2023/02/11 09:18:28;;;;;;;3.47;1.10;;;8.00;99.90;;;;;;5033904;28;20050;-94
2023/02/11 09:21:03;;;;;;;2.95;1.20;;;8.00;99.90;;;;;;5018911;28;20116;-88
2023/02/11 09:23:29;;;;;;;3.00;0.63;;;8.10;99.90;;;;;;5050516;28;20033;-93
2023/02/11 09:25:55;;;;;;;3.63;1.10;;;8.10;99.90;;;;;;5052199;28;20482;-93
2023/02/11 09:28:22;;;;;;;3.67;0.98;;;8.10;99.90;;;;;;5040297;28;20025;-94
2023/02/11 09:30:47;;;;;;;3.70;1.20;;;8.10;99.90;;;;;;5054719;28;20065;-88
2023/02/11 09:33:13;;;;;;;3.42;0.80;;;8.10;99.90;;;;;;5054313;28;20025;-93
2023/02/11 09:35:39;;;;;;;2.38;1.77;;;8.20;99.90;;;;;;5037089;28;20021;-92
2023/02/11 09:38:04;;;;;;;2.85;1.15;;;8.20;99.90;;;;;;5037074;28;20057;-91
2023/02/11 09:40:30;;;;;;;2.33;1.30;;;8.20;99.90;;;;;;5055020;28;20028;-92
2023/02/11 09:43:27;;;;;;;3.80;0.77;;;8.30;99.90;;;;;;5055149;28;20021;-92
2023/02/11 09:45:55;;;;;;;3.97;1.10;;;8.30;99.90;;;;;;5036742;28;20091;-91
2023/02/11 09:48:22;;;;;;;1.67;0.70;;;8.40;99.90;;;;;;5054474;28;20116;-92
2023/02/11 09:50:56;;;;;;;1.85;0.50;;;8.50;99.90;;;;;;5054588;28;20098;-92
2023/02/11 09:53:27;;;;;;;3.25;0.75;;;8.50;99.90;;;;;;5036461;28;20021;-93
2023/02/11 09:55:55;;;;;;;4.45;1.15;;;8.60;99.90;;;;;;5054057;28;20033;-91
2023/02/11 09:58:32;;;;;;;1.15;0.80;;;8.60;99.90;;;;;;5037416;28;20513;-93
2023/02/11 10:01:20;;;;;;;2.40;0.73;;;8.70;99.90;;;;;;5040630;28;20041;-93
2023/02/11 10:03:52;;;;;;;2.17;0.80;;;8.80;99.90;;;;;;5041386;28;20060;-92
2023/02/11 10:06:45;;;;;;;3.97;0.95;;;8.80;99.90;;;;;;5057573;28;20077;-92
2023/02/11 10:09:26;;;;;;;2.92;0.75;;;8.80;99.90;;;;;;5040455;28;20539;-93
2023/02/11 10:11:56;;;;;;;5.50;1.00;;;8.90;99.90;;;;;;5040596;28;20478;-93
2023/02/11 10:14:25;;;;;;;4.50;0.98;;;8.90;99.90;;;;;;5040429;28;20025;-93
2023/02/11 10:16:50;;;;;;;3.45;2.35;;;9.00;99.90;;;;;;5062876;28;20025;-93
2023/02/11 10:19:31;;;;;;;3.53;0.82;;;9.10;99.90;;;;;;5067134;28;20029;-93
2023/02/11 10:21:57;;;;;;;3.15;0.93;;;9.20;99.90;;;;;;5048071;28;20028;-92
2023/02/11 10:24:23;;;;;;;3.15;0.75;;;9.10;99.90;;;;;;5048513;28;20059;-93
2023/02/11 10:26:51;;;;;;;1.13;0.98;;;9.20;99.90;;;;;;5029291;28;20052;-91
2023/02/11 10:29:39;;;;;;;2.70;0.60;;;9.10;99.90;;;;;;5043838;28;20045;-93
2023/02/11 10:32:26;;;;;;;1.02;0.40;;;9.10;99.90;;;;;;5041087;28;20021;-92
2023/02/11 10:34:57;;;;;;;1.45;1.10;;;9.30;99.90;;;;;;5058481;28;20021;-92
2023/02/11 10:37:22;;;;;;;1.92;0.60;;;9.60;99.90;;;;;;5058588;28;20028;-92
2023/02/11 10:39:48;;;;;;;0.57;0.40;;;9.90;99.90;;;;;;5041558;28;20021;-92
2023/02/11 10:42:14;;;;;;;1.58;0.85;;;10.20;99.90;;;;;;5061094;28;20048;-92
2023/02/11 10:45:01;;;;;;;2.58;0.63;;;10.40;99.90;;;;;;5069576;28;20084;-92
2023/02/11 10:47:33;;;;;;;0.70;0.52;;;10.70;99.90;;;;;;5056093;28;20463;-93
2023/02/11 10:50:02;;;;;;;1.48;1.23;;;10.70;99.90;;;;;;5060682;28;20120;-92
2023/02/11 10:52:32;;;;;;;3.88;0.98;;;10.80;99.90;;;;;;5040247;28;20025;-93
2023/02/11 10:55:09;;;;;;;1.20;0.50;;;10.90;99.90;;;;;;5058229;28;20108;-93
2023/02/11 10:57:45;;;;;;;3.53;0.40;;;11.10;99.90;;;;;;5057742;28;20092;-93
2023/02/11 11:00:16;;;;;;;1.58;0.47;;;11.30;99.90;;;;;;5058051;28;20032;-93
2023/02/11 11:02:43;;;;;;;5.20;0.50;;;11.40;99.90;;;;;;5040889;28;20104;-93
2023/02/11 11:05:18;;;;;;;2.90;0.60;;;11.40;99.90;;;;;;5057691;28;20036;-93
2023/02/11 11:07:57;;;;;;;0.98;0.50;;;11.30;99.90;;;;;;5039712;28;20509;-93
2023/02/11 11:10:35;;;;;;;3.58;0.40;;;11.30;99.90;;;;;;5039710;28;20033;-92
2023/02/11 11:13:01;;;;;;;0.60;0.43;;;11.50;99.90;;;;;;5039914;28;20029;-93
2023/02/11 11:15:29;;;;;;;0.98;0.60;;;11.50;99.90;;;;;;5057556;28;20028;-92
2023/02/11 11:18:15;;;;;;;3.00;0.70;;;11.50;99.90;;;;;;5057546;28;20124;-93
2023/02/11 11:21:01;;;;;;;4.10;0.70;;;11.50;99.90;;;;;;5040050;28;20116;-92
2023/02/11 11:23:29;;;;;;;1.80;0.68;;;11.70;99.90;;;;;;5040335;28;20044;-92
2023/02/11 11:26:06;;;;;;;0.82;0.73;;;11.80;99.90;;;;;;5056001;28;20032;-93
2023/02/11 11:28:38;;;;;;;0.68;0.68;;;12.00;99.90;;;;;;5060277;28;20049;-92
2023/02/11 11:31:10;;;;;;;2.30;0.80;;;12.20;99.90;;;;;;5061756;28;20041;-92
2023/02/11 11:33:41;;;;;;;0.95;0.80;;;12.30;99.90;;;;;;5067718;28;20017;-93
2023/02/11 11:36:10;;;;;;;3.22;0.75;;;12.50;99.90;;;;;;5059392;28;20041;-93
2023/02/11 11:38:42;;;;;;;1.73;0.80;;;12.70;99.90;;;;;;5076871;28;20029;-90
2023/02/11 11:41:16;;;;;;;1.88;1.00;;;12.80;99.90;;;;;;5072422;28;20056;-93
2023/02/11 11:44:17;;;;;;;2.80;0.80;;;13.00;99.90;;;;;;5040071;28;20028;-92
2023/02/11 11:46:45;;;;;;;0.90;0.70;;;13.20;99.90;;;;;;5038565;28;20124;-93
2023/02/11 11:49:28;;;;;;;2.55;0.75;;;13.30;99.90;;;;;;5035315;28;20395;-93
2023/02/11 11:52:28;;;;;;;0.45;0.35;;;13.40;99.50;;;;;;5035289;28;20029;-92
2023/02/11 11:55:06;;;;;;;1.52;0.45;;;13.40;98.70;;;;;;5036315;28;20091;-93
2023/02/11 11:57:37;;;;;;;2.20;0.47;;;13.70;98.60;;;;;;5034935;28;20442;-93
2023/02/11 12:00:03;;;;;;;0.95;0.57;;;13.90;98.00;;;;;;5036214;28;20084;-93
2023/02/11 12:03:02;;;;;;;0.47;0.40;;;14.30;96.80;;;;;;5039297;28;20041;-92
2023/02/11 12:05:51;;;;;;;1.67;0.40;;;14.50;94.70;;;;;;5035538;28;20021;-92
2023/02/11 12:09:06;;;;;;;1.70;0.47;;;14.60;93.20;;;;;;5034756;28;20375;-95
2023/02/11 12:11:50;;;;;;;0.50;0.40;;;14.60;92.10;;;;;;4956269;29;20047;-91
2023/02/11 12:14:31;;;;;;;1.17;0.47;;;14.60;91.70;;;;;;4956155;29;20031;-92
2023/02/11 12:17:11;;;;;;;;;;;14.70;91.10;;;;;;4956140;29;20488;-93
2023/02/11 12:20:04;;;;;;;1.55;0.60;;;14.60;90.60;;;;;;4956159;29;19921;-94
2023/02/11 12:22:40;;;;;;;0.57;0.32;;;14.40;90.50;;;;;;4956793;28;20035;-95
2023/02/11 12:25:25;;;;;;;1.98;0.50;;;14.40;91.10;;;;;;4961391;29;20035;-92
2023/02/11 12:28:21;;;;;;;1.23;0.47;;;14.50;90.70;;;;;;4956717;29;20155;-92
2023/02/11 12:31:02;;;;;;;1.48;0.77;;;14.60;90.60;;;;;;4954941;29;20504;-92
2023/02/11 12:33:39;;;;;;;0.32;0.30;;;14.70;90.40;;;;;;4955388;29;20111;-91
2023/02/11 12:36:25;;;;;;;1.55;0.30;;;14.90;90.30;;;;;;4955220;29;20066;-92
2023/02/11 12:39:01;;;;;;;1.85;0.32;;;15.30;89.90;;;;;;4955027;29;20042;-94
2023/02/11 12:44:57;;;;;;;2.15;0.50;;;15.80;86.30;;;;;;4955010;29;20046;-91
2023/02/11 12:47:41;;;;;;;3.53;0.75;;;15.90;84.60;;;;;;4977279;28;20104;-91
2023/02/11 12:50:27;;;;;;;0.77;0.50;;;15.80;82.80;;;;;;5037221;28;20183;-92
2023/02/11 12:53:25;;;;;;;1.85;0.57;;;15.70;83.00;;;;;;5037699;28;20053;-94
2023/02/11 12:55:57;;;;;;;0.93;0.50;;;15.70;83.30;;;;;;5062607;28;20044;-94
2023/02/11 12:58:26;;;;;;;1.92;0.60;;;15.70;83.30;;;;;;5077581;28;20028;-93
2023/02/11 13:00:56;;;;;;;0.70;0.40;;;15.70;82.50;;;;;;5057616;28;20028;-92
2023/02/11 13:03:31;;;;;;;1.73;0.60;;;15.70;82.50;;;;;;5066544;28;20076;-94
2023/02/11 13:06:10;;;;;;;1.08;0.60;;;15.80;82.30;;;;;;5057901;28;20267;-94
2023/02/11 13:08:48;;;;;;;2.70;0.80;;;15.90;81.70;;;;;;5041080;28;20112;-95
2023/02/11 13:11:27;;;;;;;1.63;0.70;;;16.00;81.50;;;;;;5043734;28;20033;-95
2023/02/11 13:14:14;;;;;;;1.33;0.60;;;16.10;80.90;;;;;;5042844;28;20171;-95
2023/02/11 13:16:42;;;;;;;1.05;0.90;;;15.80;80.10;;;;;;5042997;28;20044;-95
2023/02/11 13:19:20;;;;;;;3.10;0.88;;;15.60;80.80;;;;;;5044668;28;20052;-93
2023/02/11 13:22:12;;;;;;;1.95;1.00;;;15.40;81.60;;;;;;5052879;28;20072;-94